Terminal Aerodrome Forecast
Issued by NWS

Home | Current Version | Previous Version | Text Only | Print | Product List | Glossary On
Versions: 1 2 3 4 5 6 7 8 9 10 11 12 13 14 15 16 17
028
FTUS43 KGRR 241741
TAFAZO
TAF
KAZO 241741Z 2418/2518 33010KT P6SM OVC012
     FM250400 VRB03KT 5SM -RASN BR OVC010
     FM250700 16003KT 4SM HZ BR OVC025
     FM251300 13005KT 4SM BR OVC015
     FM251400 13006KT 2SM -DZ BR OVC007
     FM251500 14007KT 2SM -DZ BR OVC003=

USA.gov is the U.S. government's official web portal to all federal, state and local government web resources and services.